createdAt,value
2023-06-07T00:07:02.535Z,17.33
2023-06-07T00:22:05.805Z,17.46
2023-06-07T00:37:08.942Z,17.48
2023-06-07T00:52:13.149Z,17.48
2023-06-07T01:07:18.716Z,17.47
2023-06-07T01:22:33.993Z,17.43
2023-06-07T01:37:37.350Z,17.40
2023-06-07T01:52:40.688Z,17.33
2023-06-07T02:07:49.507Z,17.23
2023-06-07T02:22:52.655Z,17.12
2023-06-07T02:37:55.975Z,17.09
2023-06-07T02:52:59.260Z,17.04
2023-06-07T03:08:02.821Z,16.98
2023-06-07T03:23:05.959Z,17.08
2023-06-07T03:38:08.840Z,17.17
2023-06-07T03:53:12.974Z,17.22
2023-06-07T04:08:15.831Z,17.18
2023-06-07T04:23:18.637Z,17.10
2023-06-07T04:38:23.563Z,17.11
2023-06-07T04:53:26.710Z,17.28
2023-06-07T05:08:29.376Z,17.70
2023-06-07T05:23:32.472Z,18.11
2023-06-07T05:38:38.068Z,18.40
2023-06-07T05:53:41.097Z,18.33
2023-06-07T06:08:44.974Z,18.43
2023-06-07T06:23:53.120Z,18.49
2023-06-07T06:38:56.773Z,18.62
2023-06-07T06:53:59.661Z,18.88
2023-06-07T07:09:02.364Z,19.06
2023-06-07T07:24:05.805Z,19.27
2023-06-07T07:39:08.885Z,19.72
2023-06-07T07:54:13.334Z,20.10
2023-06-07T08:09:16.251Z,20.59
2023-06-07T08:24:19.291Z,20.97
2023-06-07T08:39:22.902Z,21.63
2023-06-07T08:54:28.268Z,23.45
2023-06-07T09:09:32.706Z,27.16
2023-06-07T09:24:38.528Z,30.74
2023-06-07T09:39:41.279Z,32.36
2023-06-07T09:54:45.865Z,34.07
2023-06-07T10:09:53.362Z,35.02
2023-06-07T10:25:17.161Z,34.13
2023-06-07T10:40:21.450Z,33.07
2023-06-07T10:55:28.958Z,32.41
2023-06-07T11:10:36.066Z,31.89
2023-06-07T11:25:38.932Z,31.69
2023-06-07T11:40:41.682Z,30.66
2023-06-07T11:55:44.812Z,29.89
2023-06-07T12:10:55.509Z,27.03
2023-06-07T12:26:09.456Z,25.89
2023-06-07T12:41:12.334Z,24.94
2023-06-07T12:56:15.572Z,24.70
2023-06-07T13:11:19.665Z,24.50
2023-06-07T13:26:22.940Z,24.90
2023-06-07T13:41:29.728Z,25.67
2023-06-07T13:56:34.316Z,26.33
2023-06-07T14:11:39.782Z,26.97
2023-06-07T14:26:42.618Z,26.84
2023-06-07T14:41:45.553Z,26.26
2023-06-07T14:56:48.288Z,26.27
2023-06-07T15:11:51.222Z,26.33
2023-06-07T15:26:53.976Z,26.20
2023-06-07T15:41:56.717Z,26.30
2023-06-07T15:56:59.488Z,26.45
2023-06-07T16:12:02.142Z,26.57
2023-06-07T16:27:06.454Z,26.37
2023-06-07T16:42:09.207Z,26.09
2023-06-07T16:57:12.330Z,26.05
2023-06-07T17:12:16.323Z,25.75
2023-06-07T17:27:19.161Z,25.65
2023-06-07T17:42:22.518Z,25.71
2023-06-07T17:57:25.249Z,25.55
2023-06-07T18:12:28.165Z,25.33
2023-06-07T18:27:30.910Z,24.48
2023-06-07T18:42:33.755Z,23.56
2023-06-07T18:57:38.969Z,22.86
2023-06-07T19:12:41.786Z,22.39
2023-06-07T19:27:45.772Z,21.96
2023-06-07T19:42:48.435Z,21.64
2023-06-07T19:57:54.936Z,21.35
2023-06-07T20:12:57.579Z,21.03
2023-06-07T20:28:00.554Z,20.70
2023-06-07T20:43:03.618Z,20.39
2023-06-07T20:58:07.446Z,20.16
2023-06-07T21:13:10.260Z,19.88
2023-06-07T21:28:13.271Z,19.55
2023-06-07T21:43:16.094Z,19.19
2023-06-07T21:58:18.742Z,18.87
2023-06-07T22:13:22.170Z,18.64
2023-06-07T22:28:30.753Z,18.46
2023-06-07T22:43:33.695Z,18.30
2023-06-07T22:58:36.352Z,18.13
2023-06-07T23:13:39.087Z,17.91
2023-06-07T23:28:41.863Z,17.50
2023-06-07T23:43:44.619Z,17.10
2023-06-07T23:58:47.417Z,16.74
